createdAt,value
2022-08-23T00:01:27.388Z,37.92
2022-08-23T00:04:07.756Z,37.74
2022-08-23T00:06:35.485Z,38.11
2022-08-23T00:09:02.851Z,38.17
2022-08-23T00:11:50.571Z,38.02
2022-08-23T00:14:25.003Z,38.01
2022-08-23T00:16:52.770Z,37.88
2022-08-23T00:19:22.666Z,37.77
2022-08-23T00:21:52.465Z,38.06
2022-08-23T00:24:19.652Z,38.03
2022-08-23T00:27:14.480Z,38.17
2022-08-23T00:29:52.593Z,38.29
2022-08-23T00:32:33.628Z,38.44
2022-08-23T00:35:01.620Z,38.02
2022-08-23T00:37:31.203Z,38.55
2022-08-23T00:39:58.783Z,38.31
2022-08-23T00:43:08.685Z,38.40
2022-08-23T00:46:28.831Z,38.28
2022-08-23T00:48:57.156Z,38.67
2022-08-23T00:51:50.720Z,38.47
2022-08-23T00:54:23.826Z,38.28
2022-08-23T00:56:52.227Z,38.46
2022-08-23T00:59:19.394Z,38.61
2022-08-23T01:01:47.391Z,38.60
2022-08-23T01:04:16.667Z,38.61
2022-08-23T01:07:08.191Z,38.66
2022-08-23T01:09:36.070Z,38.39
2022-08-23T01:12:32.874Z,38.76
2022-08-23T01:15:11.213Z,38.88
2022-08-23T01:17:48.793Z,38.81
2022-08-23T01:20:22.244Z,38.51
2022-08-23T01:22:59.120Z,38.96
2022-08-23T01:25:30.993Z,38.67
2022-08-23T01:27:59.212Z,38.75
2022-08-23T01:30:32.597Z,38.90
2022-08-23T01:33:04.526Z,38.95
2022-08-23T01:35:40.781Z,39.06
2022-08-23T01:38:10.313Z,39.04
2022-08-23T01:40:38.316Z,39.08
2022-08-23T01:43:06.579Z,39.16
2022-08-23T01:45:34.466Z,39.33
2022-08-23T01:48:02.018Z,39.29
2022-08-23T01:50:30.100Z,39.06
2022-08-23T01:52:57.240Z,39.18
2022-08-23T01:55:24.465Z,39.06
2022-08-23T01:57:55.422Z,39.24
2022-08-23T02:00:30.473Z,39.46
2022-08-23T02:02:59.302Z,39.38
2022-08-23T02:05:27.421Z,39.45
2022-08-23T02:07:54.693Z,39.46
2022-08-23T02:14:27.316Z,39.99
2022-08-23T02:17:03.223Z,39.84
2022-08-23T02:19:33.331Z,39.66
2022-08-23T02:22:00.600Z,39.85
2022-08-23T02:24:27.933Z,39.96
2022-08-23T02:26:57.912Z,39.95
2022-08-23T02:29:28.969Z,39.86
2022-08-23T02:31:57.482Z,39.97
2022-08-23T02:34:37.326Z,40.05
2022-08-23T02:37:05.132Z,40.21
2022-08-23T02:39:32.189Z,40.27
2022-08-23T02:41:59.184Z,40.07
2022-08-23T02:44:26.148Z,40.09
2022-08-23T02:46:54.221Z,40.22
2022-08-23T02:49:21.399Z,40.35
2022-08-23T02:51:48.728Z,40.23
2022-08-23T02:54:15.705Z,40.37
2022-08-23T02:56:42.685Z,40.22
2022-08-23T02:59:09.982Z,40.35
2022-08-23T03:01:39.566Z,40.46
2022-08-23T03:04:09.423Z,40.52
2022-08-23T03:06:37.685Z,40.74
2022-08-23T03:09:07.512Z,40.75
2022-08-23T03:11:35.405Z,40.98
2022-08-23T03:14:02.448Z,40.83
2022-08-23T03:16:29.618Z,41.05
2022-08-23T03:18:56.648Z,40.99
2022-08-23T03:21:23.615Z,40.99
2022-08-23T03:23:51.828Z,41.00
2022-08-23T03:26:19.420Z,41.26
2022-08-23T03:28:47.287Z,41.01
2022-08-23T03:31:15.667Z,41.13
2022-08-23T03:33:42.504Z,41.47
2022-08-23T03:36:12.108Z,41.46
2022-08-23T03:38:40.650Z,41.45
2022-08-23T03:41:09.382Z,41.70
2022-08-23T03:43:36.837Z,41.65
2022-08-23T03:46:04.293Z,41.82
2022-08-23T03:48:31.392Z,41.74
2022-08-23T03:50:59.362Z,41.73
2022-08-23T03:53:26.147Z,42.03
2022-08-23T03:55:56.272Z,42.16
2022-08-23T03:58:23.501Z,42.10
2022-08-23T04:00:50.347Z,42.13
2022-08-23T04:03:17.152Z,42.25
2022-08-23T04:05:43.961Z,42.30
2022-08-23T04:08:11.846Z,42.23
2022-08-23T04:10:39.138Z,42.52
2022-08-23T04:13:09.065Z,42.62
2022-08-23T04:15:37.507Z,42.47
2022-08-23T04:18:04.650Z,42.53
2022-08-23T04:20:31.726Z,42.64
2022-08-23T04:22:58.732Z,42.77
2022-08-23T04:25:33.231Z,42.85
2022-08-23T04:28:03.141Z,43.16
2022-08-23T04:30:30.697Z,42.99
2022-08-23T04:32:57.629Z,43.17
2022-08-23T04:35:26.017Z,43.03
2022-08-23T04:37:53.737Z,43.06
2022-08-23T04:40:39.048Z,43.32
2022-08-23T04:43:08.168Z,43.32
2022-08-23T04:45:39.013Z,43.12
2022-08-23T04:48:06.869Z,43.34
2022-08-23T04:50:39.296Z,43.35
2022-08-23T04:53:07.285Z,43.39
2022-08-23T04:55:35.495Z,43.67
2022-08-23T04:58:04.181Z,43.67
2022-08-23T05:00:31.085Z,43.78
2022-08-23T05:02:57.996Z,43.93
2022-08-23T05:05:24.821Z,43.80
2022-08-23T05:07:51.609Z,43.95
2022-08-23T05:10:19.038Z,43.56
2022-08-23T05:12:46.621Z,43.39
2022-08-23T05:15:14.285Z,43.21
2022-08-23T05:17:41.090Z,42.75
2022-08-23T05:20:10.235Z,42.20
2022-08-23T05:22:41.441Z,41.65
2022-08-23T05:25:09.128Z,40.99
2022-08-23T05:27:36.508Z,40.50
2022-08-23T05:30:06.470Z,40.32
2022-08-23T05:32:33.887Z,39.79
2022-08-23T05:35:01.047Z,39.32
2022-08-23T05:37:28.442Z,39.21
2022-08-23T05:39:55.315Z,38.85
2022-08-23T05:42:22.522Z,38.70
2022-08-23T05:44:49.359Z,38.43
2022-08-23T05:47:17.693Z,38.53
2022-08-23T05:49:51.726Z,38.80
2022-08-23T05:52:18.528Z,38.84
2022-08-23T05:54:45.341Z,39.41
2022-08-23T05:57:12.165Z,39.57
2022-08-23T05:59:39.678Z,39.64
2022-08-23T06:02:06.485Z,39.75
2022-08-23T06:04:33.346Z,39.49
2022-08-23T06:07:00.150Z,39.52
2022-08-23T06:09:27.265Z,38.84
2022-08-23T06:11:54.220Z,38.69
2022-08-23T06:14:22.382Z,38.26
2022-08-23T06:16:55.126Z,37.56
2022-08-23T06:19:23.737Z,37.20
2022-08-23T06:21:51.956Z,36.37
2022-08-23T06:24:20.031Z,36.06
2022-08-23T06:26:47.240Z,35.61
2022-08-23T06:29:17.969Z,35.49
2022-08-23T06:31:48.978Z,35.03
2022-08-23T06:34:22.113Z,34.78
2022-08-23T06:36:58.402Z,34.92
2022-08-23T06:39:28.118Z,34.93
2022-08-23T06:42:13.253Z,34.87
2022-08-23T06:44:49.539Z,34.63
2022-08-23T06:47:16.899Z,34.44
2022-08-23T06:49:51.062Z,34.26
2022-08-23T06:52:24.799Z,33.96
2022-08-23T06:54:52.508Z,34.14
2022-08-23T06:57:20.524Z,33.68
2022-08-23T06:59:49.786Z,33.31
2022-08-23T07:02:16.983Z,33.06
2022-08-23T07:04:43.887Z,32.62
2022-08-23T07:07:12.144Z,32.79
2022-08-23T07:09:40.859Z,32.54
2022-08-23T07:12:08.319Z,32.87
2022-08-23T07:14:37.911Z,32.90
2022-08-23T07:17:05.145Z,32.32
2022-08-23T07:19:34.114Z,31.65
2022-08-23T07:22:02.714Z,31.29
2022-08-23T07:24:33.373Z,30.69
2022-08-23T07:27:06.297Z,30.39
2022-08-23T07:29:34.037Z,30.46
2022-08-23T07:32:00.957Z,29.79
2022-08-23T07:34:28.663Z,30.06
2022-08-23T07:36:55.617Z,29.56
2022-08-23T07:39:23.861Z,29.74
2022-08-23T07:41:52.589Z,29.36
2022-08-23T07:44:20.303Z,29.12
2022-08-23T07:46:54.408Z,29.03
2022-08-23T07:49:21.295Z,28.76
2022-08-23T07:51:51.219Z,28.15
2022-08-23T07:54:20.069Z,27.58
2022-08-23T07:56:47.080Z,27.32
2022-08-23T07:59:14.311Z,27.80
2022-08-23T08:01:44.189Z,27.63
2022-08-23T08:04:12.523Z,27.50
2022-08-23T08:07:04.747Z,27.37
2022-08-23T08:09:35.479Z,27.91
2022-08-23T08:12:02.290Z,27.80
2022-08-23T08:14:29.156Z,28.28
2022-08-23T08:16:58.674Z,28.47
2022-08-23T08:19:25.957Z,28.98
2022-08-23T08:21:53.191Z,28.71
2022-08-23T08:24:20.040Z,29.35
2022-08-23T08:26:47.178Z,29.01
2022-08-23T08:29:14.290Z,29.08
2022-08-23T08:31:44.144Z,29.18
2022-08-23T08:34:12.389Z,29.55
2022-08-23T08:36:47.023Z,29.62
2022-08-23T08:39:20.858Z,29.15
2022-08-23T08:42:23.499Z,29.74
2022-08-23T08:44:56.214Z,29.36
2022-08-23T08:47:55.486Z,29.69
2022-08-23T08:50:33.867Z,29.31
2022-08-23T08:53:02.838Z,29.05
2022-08-23T08:55:46.442Z,29.33
2022-08-23T08:58:30.639Z,29.09
2022-08-23T09:00:58.165Z,29.43
2022-08-23T09:03:32.836Z,29.48
2022-08-23T09:06:25.612Z,29.96
2022-08-23T09:09:04.650Z,29.35
2022-08-23T09:12:03.836Z,29.62
2022-08-23T09:15:06.668Z,29.52
2022-08-23T09:17:55.852Z,29.57
2022-08-23T09:20:32.401Z,29.89
2022-08-23T09:23:11.702Z,29.79
2022-08-23T09:25:38.704Z,29.62
2022-08-23T09:28:05.586Z,29.36
2022-08-23T09:30:54.903Z,29.85
2022-08-23T09:33:40.510Z,29.92
2022-08-23T09:36:17.752Z,29.74
2022-08-23T09:38:58.324Z,29.75
2022-08-23T09:41:32.696Z,29.78
2022-08-23T09:44:02.678Z,29.93
2022-08-23T09:46:35.829Z,29.49
2022-08-23T09:49:26.280Z,29.72
2022-08-23T09:51:56.257Z,29.62
2022-08-23T09:54:36.101Z,29.56
2022-08-23T09:57:09.213Z,29.57
2022-08-23T09:59:44.955Z,29.38
2022-08-23T10:02:29.745Z,28.79
2022-08-23T10:05:17.445Z,29.00
2022-08-23T10:07:56.920Z,29.34
2022-08-23T10:10:35.708Z,29.38
2022-08-23T10:13:05.286Z,29.21
2022-08-23T10:16:13.857Z,29.56
2022-08-23T10:19:04.736Z,29.56
2022-08-23T10:21:54.541Z,29.11
2022-08-23T10:24:36.518Z,29.31
2022-08-23T10:27:54.645Z,29.30
2022-08-23T10:30:28.981Z,29.37
2022-08-23T10:33:03.084Z,30.16
2022-08-23T10:36:06.024Z,29.78
2022-08-23T10:38:52.767Z,29.02
2022-08-23T10:41:43.556Z,29.34
2022-08-23T10:44:59.819Z,29.66
2022-08-23T10:48:04.221Z,29.63
2022-08-23T10:50:56.228Z,29.76
2022-08-23T10:53:34.372Z,29.36
2022-08-23T10:56:04.222Z,29.11
2022-08-23T10:58:42.020Z,29.15
2022-08-23T11:01:16.933Z,29.08
2022-08-23T11:03:52.442Z,28.81
2022-08-23T11:06:47.488Z,28.87
2022-08-23T11:09:20.305Z,29.01
2022-08-23T11:12:07.156Z,28.83
2022-08-23T11:14:40.946Z,29.06
2022-08-23T11:17:25.334Z,28.75
2022-08-23T11:20:09.760Z,28.85
2022-08-23T11:22:58.216Z,28.83
2022-08-23T11:25:24.877Z,28.46
2022-08-23T11:28:23.597Z,28.71
2022-08-23T11:31:11.924Z,28.76
2022-08-23T11:34:01.672Z,28.87
2022-08-23T11:36:30.119Z,28.49
2022-08-23T11:38:56.791Z,28.47
2022-08-23T11:41:30.840Z,28.62
2022-08-23T11:43:57.495Z,28.58
2022-08-23T11:46:27.217Z,28.66
2022-08-23T11:49:21.753Z,28.92
2022-08-23T11:52:16.868Z,29.14
2022-08-23T11:55:19.907Z,28.92
2022-08-23T11:58:30.691Z,28.98
2022-08-23T12:01:10.197Z,29.09
2022-08-23T12:04:02.116Z,29.04
2022-08-23T12:06:39.128Z,28.76
2022-08-23T12:09:35.924Z,28.31
2022-08-23T12:12:12.879Z,28.50
2022-08-23T12:14:42.664Z,28.62
2022-08-23T12:17:12.115Z,28.53
2022-08-23T12:20:17.138Z,28.27
2022-08-23T12:23:07.721Z,29.58
2022-08-23T12:25:37.371Z,28.86
2022-08-23T12:28:42.212Z,28.46
2022-08-23T12:31:29.825Z,28.14
2022-08-23T12:34:27.520Z,28.53
2022-08-23T12:37:11.705Z,28.19
2022-08-23T12:39:48.813Z,28.25
2022-08-23T12:42:34.253Z,28.29
2022-08-23T12:45:20.115Z,27.69
2022-08-23T12:48:02.606Z,28.18
2022-08-23T12:50:41.249Z,27.64
2022-08-23T12:53:31.394Z,27.97
2022-08-23T12:56:07.533Z,27.53
2022-08-23T12:58:39.024Z,27.53
2022-08-23T13:01:24.314Z,27.58
2022-08-23T13:04:13.507Z,27.70
2022-08-23T13:06:54.086Z,27.81
2022-08-23T13:09:33.045Z,27.76
2022-08-23T13:12:00.911Z,27.40
2022-08-23T13:14:41.497Z,27.27
2022-08-23T13:17:20.492Z,27.46
2022-08-23T13:19:54.417Z,27.19
2022-08-23T13:22:25.694Z,27.16
2022-08-23T13:25:24.762Z,27.37
2022-08-23T13:27:45.081Z,26.87
2022-08-23T13:30:36.303Z,27.34
2022-08-23T13:33:32.491Z,27.13
2022-08-23T13:36:13.272Z,26.73
2022-08-23T13:38:43.174Z,27.03
2022-08-23T13:41:29.557Z,26.69
2022-08-23T13:43:56.663Z,26.20
2022-08-23T13:46:29.620Z,26.35
2022-08-23T13:49:14.071Z,26.52
2022-08-23T13:52:11.936Z,26.79
2022-08-23T13:54:52.705Z,26.06
2022-08-23T13:57:21.021Z,25.77
2022-08-23T13:59:54.922Z,25.58
2022-08-23T14:02:23.799Z,25.97
2022-08-23T14:04:51.024Z,25.76
2022-08-23T14:07:18.872Z,25.53
2022-08-23T14:09:45.993Z,25.71
2022-08-23T14:12:22.240Z,25.72
2022-08-23T14:14:49.866Z,25.33
2022-08-23T14:17:20.218Z,25.24
2022-08-23T14:20:32.953Z,25.32
2022-08-23T14:22:36.000Z,24.94
2022-08-23T14:25:03.078Z,25.32
2022-08-23T14:27:30.014Z,24.40
2022-08-23T14:29:56.796Z,24.46
2022-08-23T14:32:24.128Z,24.29
2022-08-23T14:34:52.444Z,24.17
2022-08-23T14:38:02.886Z,24.39
2022-08-23T14:40:06.915Z,24.62
2022-08-23T14:42:33.771Z,24.22
2022-08-23T14:45:00.553Z,24.45
2022-08-23T14:47:27.752Z,24.60
2022-08-23T14:49:54.576Z,23.88
2022-08-23T14:52:22.069Z,24.01
2022-08-23T14:54:49.739Z,23.85
2022-08-23T14:57:16.878Z,24.04
2022-08-23T14:59:43.783Z,23.79
2022-08-23T15:02:21.736Z,24.04
2022-08-23T15:04:48.545Z,23.64
2022-08-23T15:07:18.324Z,23.58
2022-08-23T15:09:51.229Z,23.82
2022-08-23T15:15:21.758Z,23.67
2022-08-23T15:17:57.754Z,24.27
2022-08-23T15:20:32.332Z,24.24
2022-08-23T15:23:00.406Z,23.88
2022-08-23T15:25:31.243Z,24.00
2022-08-23T15:27:58.126Z,23.88
2022-08-23T15:30:24.989Z,24.18
2022-08-23T15:32:56.540Z,24.05
2022-08-23T15:35:25.335Z,23.86
2022-08-23T15:37:54.458Z,23.92
2022-08-23T15:40:21.680Z,23.75
2022-08-23T15:42:48.757Z,24.04
2022-08-23T15:45:15.586Z,23.82
2022-08-23T15:47:52.777Z,23.88
2022-08-23T15:50:24.023Z,23.47
2022-08-23T15:52:51.822Z,23.74
2022-08-23T15:55:19.160Z,23.67
2022-08-23T15:57:51.238Z,23.37
2022-08-23T16:00:21.776Z,23.77
2022-08-23T16:03:28.038Z,23.80
2022-08-23T16:05:39.929Z,23.23
2022-08-23T16:08:08.119Z,23.75
2022-08-23T16:10:35.199Z,23.84
2022-08-23T16:13:03.389Z,23.79
2022-08-23T16:15:30.476Z,23.69
2022-08-23T16:17:57.340Z,23.59
2022-08-23T16:20:24.228Z,23.79
2022-08-23T16:22:51.012Z,24.06
2022-08-23T16:25:17.885Z,23.79
2022-08-23T16:27:44.701Z,23.76
2022-08-23T16:30:13.182Z,24.22
2022-08-23T16:32:40.128Z,23.96
2022-08-23T16:35:08.026Z,23.58
2022-08-23T16:37:36.052Z,23.96
2022-08-23T16:40:06.945Z,23.52
2022-08-23T16:42:33.882Z,23.86
2022-08-23T16:45:00.732Z,23.79
2022-08-23T16:47:27.766Z,23.63
2022-08-23T16:49:55.666Z,23.80
2022-08-23T16:52:25.948Z,23.65
2022-08-23T16:55:07.824Z,23.54
2022-08-23T16:57:34.851Z,23.63
2022-08-23T17:00:02.175Z,23.64
2022-08-23T17:02:36.239Z,23.70
2022-08-23T17:05:08.362Z,23.61
2022-08-23T17:07:35.233Z,23.87
2022-08-23T17:10:02.120Z,23.65
2022-08-23T17:12:29.135Z,23.71
2022-08-23T17:14:57.236Z,23.89
2022-08-23T17:17:24.936Z,23.81
2022-08-23T17:19:52.192Z,24.28
2022-08-23T17:22:19.037Z,24.23
2022-08-23T17:24:45.818Z,24.02
2022-08-23T17:27:19.096Z,24.61
2022-08-23T17:29:46.660Z,24.18
2022-08-23T17:32:13.861Z,24.54
2022-08-23T17:34:40.666Z,24.20
2022-08-23T17:37:20.197Z,24.38
2022-08-23T17:39:48.434Z,24.83
2022-08-23T17:42:15.330Z,24.61
2022-08-23T17:44:42.600Z,24.62
2022-08-23T17:47:15.663Z,24.98
2022-08-23T17:49:45.056Z,24.75
2022-08-23T17:52:12.148Z,24.61
2022-08-23T17:54:40.743Z,24.66
2022-08-23T17:57:09.805Z,24.94
2022-08-23T17:59:37.781Z,25.08
2022-08-23T18:02:05.433Z,25.01
2022-08-23T18:04:32.345Z,24.81
2022-08-23T18:06:59.436Z,25.08
2022-08-23T18:09:26.371Z,25.32
2022-08-23T18:11:53.212Z,25.01
2022-08-23T18:14:20.130Z,25.32
2022-08-23T18:16:47.516Z,25.36
2022-08-23T18:19:14.447Z,25.46
2022-08-23T18:21:43.254Z,25.74
2022-08-23T18:24:11.025Z,25.48
2022-08-23T18:26:57.158Z,25.39
2022-08-23T18:29:24.869Z,25.59
2022-08-23T18:31:52.246Z,25.86
2022-08-23T18:34:19.796Z,25.97
2022-08-23T18:36:46.920Z,25.81
2022-08-23T18:39:16.034Z,25.87
2022-08-23T18:41:43.408Z,25.88
2022-08-23T18:44:10.935Z,26.45
2022-08-23T18:46:41.399Z,26.43
2022-08-23T18:49:10.392Z,26.32
2022-08-23T18:51:38.740Z,26.49
2022-08-23T18:54:06.510Z,26.67
2022-08-23T18:56:33.638Z,26.46
2022-08-23T18:59:00.859Z,26.72
2022-08-23T19:01:36.038Z,26.44
2022-08-23T19:04:05.554Z,26.71
2022-08-23T19:06:32.966Z,26.68
2022-08-23T19:09:00.883Z,26.70
2022-08-23T19:11:29.287Z,26.95
2022-08-23T19:13:58.357Z,26.73
2022-08-23T19:16:26.278Z,26.88
2022-08-23T19:18:54.728Z,26.87
2022-08-23T19:21:24.770Z,27.36
2022-08-23T19:23:54.356Z,27.20
2022-08-23T19:26:25.812Z,27.40
2022-08-23T19:28:52.718Z,27.32
2022-08-23T19:31:19.614Z,27.39
2022-08-23T19:33:46.481Z,27.68
2022-08-23T19:36:35.675Z,27.54
2022-08-23T19:39:00.277Z,27.79
2022-08-23T19:41:27.164Z,27.64
2022-08-23T19:43:53.935Z,27.72
2022-08-23T19:46:20.786Z,27.62
2022-08-23T19:48:48.612Z,27.71
2022-08-23T19:51:18.221Z,27.57
2022-08-23T19:54:04.596Z,28.17
2022-08-23T19:56:57.258Z,28.09
2022-08-23T19:59:30.159Z,28.00
2022-08-23T20:01:58.701Z,28.07
2022-08-23T20:04:28.225Z,28.00
2022-08-23T20:06:55.732Z,28.12
2022-08-23T20:09:23.728Z,28.57
2022-08-23T20:11:55.137Z,28.38
2022-08-23T20:14:24.618Z,28.46
2022-08-23T20:16:53.092Z,28.47
2022-08-23T20:19:20.477Z,28.46
2022-08-23T20:21:47.387Z,28.75
2022-08-23T20:24:15.362Z,28.74
2022-08-23T20:26:46.585Z,28.82
2022-08-23T20:29:20.644Z,28.82
2022-08-23T20:31:54.782Z,28.81
2022-08-23T20:34:23.000Z,29.23
2022-08-23T20:36:55.828Z,29.21
2022-08-23T20:39:24.144Z,29.37
2022-08-23T20:41:52.937Z,29.53
2022-08-23T20:44:21.815Z,29.51
2022-08-23T20:46:53.674Z,29.35
2022-08-23T20:49:22.797Z,29.57
2022-08-23T20:51:50.373Z,29.48
2022-08-23T20:54:17.606Z,29.68
2022-08-23T20:56:44.391Z,29.81
2022-08-23T20:59:12.884Z,29.92
2022-08-23T21:01:39.722Z,29.95
2022-08-23T21:04:07.137Z,30.31
2022-08-23T21:06:46.671Z,30.13
2022-08-23T21:09:19.025Z,30.48
2022-08-23T21:11:47.774Z,30.55
2022-08-23T21:14:17.168Z,30.77
2022-08-23T21:16:45.693Z,30.53
2022-08-23T21:19:12.745Z,30.41
2022-08-23T21:21:40.945Z,30.89
2022-08-23T21:24:09.774Z,30.88
2022-08-23T21:26:37.646Z,30.58
2022-08-23T21:29:07.515Z,30.83
2022-08-23T21:31:34.855Z,30.86
2022-08-23T21:34:02.019Z,30.94
2022-08-23T21:36:29.118Z,31.32
2022-08-23T21:38:55.961Z,30.90
2022-08-23T21:41:44.921Z,31.11
2022-08-23T21:44:19.634Z,31.03
2022-08-23T21:46:47.919Z,31.40
2022-08-23T21:49:16.201Z,31.41
2022-08-23T21:51:45.175Z,31.53
2022-08-23T21:54:13.321Z,31.73
2022-08-23T21:56:40.941Z,31.82
2022-08-23T21:59:11.193Z,31.95
2022-08-23T22:01:38.608Z,32.18
2022-08-23T22:04:08.729Z,32.46
2022-08-23T22:06:36.292Z,32.74
2022-08-23T22:09:05.410Z,32.83
2022-08-23T22:11:32.198Z,32.55
2022-08-23T22:13:59.007Z,32.82
2022-08-23T22:16:26.087Z,32.82
2022-08-23T22:18:53.631Z,32.81
2022-08-23T22:21:20.768Z,33.00
2022-08-23T22:23:47.613Z,33.43
2022-08-23T22:26:14.706Z,33.49
2022-08-23T22:28:45.028Z,33.36
2022-08-23T22:31:15.079Z,33.37
2022-08-23T22:33:43.237Z,33.93
2022-08-23T22:36:17.533Z,34.05
2022-08-23T22:38:45.695Z,34.11
2022-08-23T22:41:17.728Z,33.90
2022-08-23T22:43:44.791Z,34.15
2022-08-23T22:46:12.165Z,34.16
2022-08-23T22:48:39.095Z,34.62
2022-08-23T22:51:19.229Z,34.23
2022-08-23T22:53:49.457Z,34.40
2022-08-23T22:56:24.051Z,34.35
2022-08-23T22:58:53.589Z,34.23
2022-08-23T23:01:22.724Z,34.64
2022-08-23T23:03:51.533Z,34.54
2022-08-23T23:06:20.155Z,34.67
2022-08-23T23:08:47.345Z,35.00
2022-08-23T23:11:16.599Z,35.09
2022-08-23T23:13:44.508Z,35.25
2022-08-23T23:16:15.378Z,35.07
2022-08-23T23:19:04.026Z,35.59
2022-08-23T23:21:44.846Z,35.54
2022-08-23T23:24:15.026Z,35.39
2022-08-23T23:26:42.921Z,35.20
2022-08-23T23:29:14.742Z,35.21
2022-08-23T23:31:41.587Z,35.26
2022-08-23T23:34:09.023Z,35.36
2022-08-23T23:36:37.448Z,35.44
2022-08-23T23:39:09.699Z,35.76
2022-08-23T23:41:36.592Z,35.47
2022-08-23T23:44:04.020Z,35.69
2022-08-23T23:46:30.800Z,35.63
2022-08-23T23:48:58.110Z,35.93
2022-08-23T23:51:29.125Z,35.46
2022-08-23T23:53:59.025Z,36.04
2022-08-23T23:56:29.320Z,35.69
2022-08-23T23:58:57.047Z,35.76
